Terminal Aerodrome Forecast
Issued by NWS Jackson, KY

Home | Current Version | Previous Version | Text Only | Print | Product List | Glossary On
Versions: 1 2 3 4 5 6 7 8 9 10 11 12 13 14 15 16 17 18
327
FTUS43 KJKL 301121
TAFLOZ
TAF
KLOZ 301121Z 3012/0112 VRB04KT P6SM VCSH BKN090
     FM301700 VRB04KT 5SM -SHRA BR SCT040 OVC080
     FM302200 VRB04KT 5SM -SHRA BR VCTS BKN020CB OVC040
     FM010200 VRB04KT 5SM BR VCTS BKN035CB=

USA.gov is the U.S. government's official web portal to all federal, state and local government web resources and services.